sensor_id;sensor_type;location;lat;lon;timestamp;temperature;humidity
19242;DHT22;9755;47.790;9.620;2022-07-23T00:01:57;17.90;99.90
19242;DHT22;9755;47.790;9.620;2022-07-23T00:04:24;17.80;99.90
19242;DHT22;9755;47.790;9.620;2022-07-23T00:06:51;17.90;99.90
19242;DHT22;9755;47.790;9.620;2022-07-23T00:09:18;17.90;99.90
19242;DHT22;9755;47.790;9.620;2022-07-23T00:11:46;18.00;99.90
19242;DHT22;9755;47.790;9.620;2022-07-23T00:14:13;17.90;99.90
19242;DHT22;9755;47.790;9.620;2022-07-23T00:16:41;18.10;99.90
19242;DHT22;9755;47.790;9.620;2022-07-23T00:19:08;18.00;99.90
19242;DHT22;9755;47.790;9.620;2022-07-23T00:21:35;18.00;99.90
19242;DHT22;9755;47.790;9.620;2022-07-23T00:24:03;18.10;99.90
19242;DHT22;9755;47.790;9.620;2022-07-23T00:26:30;18.20;99.90
19242;DHT22;9755;47.790;9.620;2022-07-23T00:28:57;18.30;99.90
19242;DHT22;9755;47.790;9.620;2022-07-23T00:31:24;18.30;99.90
19242;DHT22;9755;47.790;9.620;2022-07-23T00:33:53;18.10;99.90
19242;DHT22;9755;47.790;9.620;2022-07-23T00:36:22;18.10;99.90
19242;DHT22;9755;47.790;9.620;2022-07-23T00:38:49;18.20;99.90
19242;DHT22;9755;47.790;9.620;2022-07-23T00:41:17;18.20;99.90
19242;DHT22;9755;47.790;9.620;2022-07-23T00:43:44;18.10;99.90
19242;DHT22;9755;47.790;9.620;2022-07-23T00:46:11;18.10;99.90
19242;DHT22;9755;47.790;9.620;2022-07-23T00:48:38;18.20;99.90
19242;DHT22;9755;47.790;9.620;2022-07-23T00:51:06;18.20;99.90
19242;DHT22;9755;47.790;9.620;2022-07-23T00:53:34;18.10;99.90
19242;DHT22;9755;47.790;9.620;2022-07-23T00:56:01;18.00;99.90
19242;DHT22;9755;47.790;9.620;2022-07-23T00:58:28;18.00;99.90
19242;DHT22;9755;47.790;9.620;2022-07-23T01:00:55;18.00;99.90
19242;DHT22;9755;47.790;9.620;2022-07-23T01:03:22;17.90;99.90
19242;DHT22;9755;47.790;9.620;2022-07-23T01:05:49;17.70;99.90
19242;DHT22;9755;47.790;9.620;2022-07-23T01:08:18;17.60;99.90
19242;DHT22;9755;47.790;9.620;2022-07-23T01:10:47;17.50;99.90
19242;DHT22;9755;47.790;9.620;2022-07-23T01:13:15;17.50;99.90
19242;DHT22;9755;47.790;9.620;2022-07-23T01:15:42;17.60;99.90
19242;DHT22;9755;47.790;9.620;2022-07-23T01:18:09;17.70;99.90
19242;DHT22;9755;47.790;9.620;2022-07-23T01:20:38;17.60;99.90
19242;DHT22;9755;47.790;9.620;2022-07-23T01:23:07;17.30;99.90
19242;DHT22;9755;47.790;9.620;2022-07-23T01:25:34;17.30;99.90
19242;DHT22;9755;47.790;9.620;2022-07-23T01:28:01;17.40;99.90
19242;DHT22;9755;47.790;9.620;2022-07-23T01:30:28;17.60;99.90
19242;DHT22;9755;47.790;9.620;2022-07-23T01:32:55;17.70;99.90
19242;DHT22;9755;47.790;9.620;2022-07-23T01:35:22;17.60;99.90
19242;DHT22;9755;47.790;9.620;2022-07-23T01:37:49;17.50;99.90
19242;DHT22;9755;47.790;9.620;2022-07-23T01:40:18;17.40;99.90
19242;DHT22;9755;47.790;9.620;2022-07-23T01:42:45;17.40;99.90
19242;DHT22;9755;47.790;9.620;2022-07-23T01:45:12;17.60;99.90
19242;DHT22;9755;47.790;9.620;2022-07-23T01:47:39;17.50;99.90
19242;DHT22;9755;47.790;9.620;2022-07-23T01:50:07;17.50;99.90
19242;DHT22;9755;47.790;9.620;2022-07-23T01:52:34;17.50;99.90
19242;DHT22;9755;47.790;9.620;2022-07-23T01:55:02;17.40;92.00
19242;DHT22;9755;47.790;9.620;2022-07-23T01:57:30;17.40;99.90
19242;DHT22;9755;47.790;9.620;2022-07-23T01:59:57;17.30;99.90
19242;DHT22;9755;47.790;9.620;2022-07-23T02:02:42;17.30;99.90
19242;DHT22;9755;47.790;9.620;2022-07-23T02:05:19;17.20;99.90
19242;DHT22;9755;47.790;9.620;2022-07-23T02:08:01;17.20;99.90
19242;DHT22;9755;47.790;9.620;2022-07-23T02:10:38;17.20;99.90
19242;DHT22;9755;47.790;9.620;2022-07-23T02:13:12;17.10;99.90
19242;DHT22;9755;47.790;9.620;2022-07-23T02:15:40;17.00;99.90
19242;DHT22;9755;47.790;9.620;2022-07-23T02:18:07;16.90;99.90
19242;DHT22;9755;47.790;9.620;2022-07-23T02:20:35;16.90;99.90
19242;DHT22;9755;47.790;9.620;2022-07-23T02:23:04;17.00;99.90
19242;DHT22;9755;47.790;9.620;2022-07-23T02:25:32;17.00;99.90
19242;DHT22;9755;47.790;9.620;2022-07-23T02:27:59;17.10;99.90
19242;DHT22;9755;47.790;9.620;2022-07-23T02:30:28;17.10;99.90
19242;DHT22;9755;47.790;9.620;2022-07-23T02:32:55;17.00;99.90
19242;DHT22;9755;47.790;9.620;2022-07-23T02:35:22;17.00;99.90
19242;DHT22;9755;47.790;9.620;2022-07-23T02:37:50;17.10;99.90
19242;DHT22;9755;47.790;9.620;2022-07-23T02:40:17;17.20;99.90
19242;DHT22;9755;47.790;9.620;2022-07-23T02:42:44;17.30;99.90
19242;DHT22;9755;47.790;9.620;2022-07-23T02:45:11;17.30;99.90
19242;DHT22;9755;47.790;9.620;2022-07-23T02:47:40;17.10;99.90
19242;DHT22;9755;47.790;9.620;2022-07-23T02:50:07;17.10;99.90
19242;DHT22;9755;47.790;9.620;2022-07-23T02:52:35;17.00;99.90
19242;DHT22;9755;47.790;9.620;2022-07-23T02:55:02;17.00;99.90
19242;DHT22;9755;47.790;9.620;2022-07-23T02:57:30;16.90;99.90
19242;DHT22;9755;47.790;9.620;2022-07-23T02:59:57;16.90;99.90
19242;DHT22;9755;47.790;9.620;2022-07-23T03:02:24;17.00;99.90
19242;DHT22;9755;47.790;9.620;2022-07-23T03:04:52;17.00;99.90
19242;DHT22;9755;47.790;9.620;2022-07-23T03:07:19;17.10;99.90
19242;DHT22;9755;47.790;9.620;2022-07-23T03:09:47;17.10;99.90
19242;DHT22;9755;47.790;9.620;2022-07-23T03:12:14;17.20;99.90
19242;DHT22;9755;47.790;9.620;2022-07-23T03:14:41;17.20;99.90
19242;DHT22;9755;47.790;9.620;2022-07-23T03:17:08;17.30;99.90
19242;DHT22;9755;47.790;9.620;2022-07-23T03:19:36;17.20;99.90
19242;DHT22;9755;47.790;9.620;2022-07-23T03:22:05;17.30;99.90
19242;DHT22;9755;47.790;9.620;2022-07-23T03:24:32;17.20;99.90
19242;DHT22;9755;47.790;9.620;2022-07-23T03:27:17;17.20;99.90
19242;DHT22;9755;47.790;9.620;2022-07-23T03:29:44;17.00;99.90
19242;DHT22;9755;47.790;9.620;2022-07-23T03:32:11;17.00;99.90
19242;DHT22;9755;47.790;9.620;2022-07-23T03:34:38;17.00;99.90
19242;DHT22;9755;47.790;9.620;2022-07-23T03:37:07;17.10;99.90
19242;DHT22;9755;47.790;9.620;2022-07-23T03:39:34;17.10;99.90
19242;DHT22;9755;47.790;9.620;2022-07-23T03:42:01;17.30;99.90
19242;DHT22;9755;47.790;9.620;2022-07-23T03:44:29;17.20;99.90
19242;DHT22;9755;47.790;9.620;2022-07-23T03:46:56;17.20;99.90
19242;DHT22;9755;47.790;9.620;2022-07-23T03:49:23;17.30;99.90
19242;DHT22;9755;47.790;9.620;2022-07-23T03:51:50;17.20;99.90
19242;DHT22;9755;47.790;9.620;2022-07-23T03:54:18;17.20;99.90
19242;DHT22;9755;47.790;9.620;2022-07-23T03:56:46;17.10;99.90
19242;DHT22;9755;47.790;9.620;2022-07-23T03:59:13;17.10;99.90
19242;DHT22;9755;47.790;9.620;2022-07-23T04:01:40;17.10;99.90
19242;DHT22;9755;47.790;9.620;2022-07-23T04:04:07;17.10;99.90
19242;DHT22;9755;47.790;9.620;2022-07-23T04:06:35;17.10;99.90
19242;DHT22;9755;47.790;9.620;2022-07-23T04:09:02;17.10;99.90
19242;DHT22;9755;47.790;9.620;2022-07-23T04:11:31;17.20;99.90
19242;DHT22;9755;47.790;9.620;2022-07-23T04:13:58;17.20;99.90
19242;DHT22;9755;47.790;9.620;2022-07-23T04:16:25;17.10;99.90
19242;DHT22;9755;47.790;9.620;2022-07-23T04:18:54;17.10;99.90
19242;DHT22;9755;47.790;9.620;2022-07-23T04:21:21;17.20;99.90
19242;DHT22;9755;47.790;9.620;2022-07-23T04:23:48;17.10;99.90
19242;DHT22;9755;47.790;9.620;2022-07-23T04:26:15;17.10;99.90
19242;DHT22;9755;47.790;9.620;2022-07-23T04:28:43;17.10;99.90
19242;DHT22;9755;47.790;9.620;2022-07-23T04:31:10;17.20;99.90
19242;DHT22;9755;47.790;9.620;2022-07-23T04:33:37;17.30;99.90
19242;DHT22;9755;47.790;9.620;2022-07-23T04:36:05;17.30;99.90
19242;DHT22;9755;47.790;9.620;2022-07-23T04:38:32;17.40;99.90
19242;DHT22;9755;47.790;9.620;2022-07-23T04:41:00;17.40;99.90
19242;DHT22;9755;47.790;9.620;2022-07-23T04:43:27;17.50;99.90
19242;DHT22;9755;47.790;9.620;2022-07-23T04:45:55;17.50;99.90
19242;DHT22;9755;47.790;9.620;2022-07-23T04:48:22;17.50;99.90
19242;DHT22;9755;47.790;9.620;2022-07-23T04:50:49;17.50;99.90
19242;DHT22;9755;47.790;9.620;2022-07-23T04:53:16;17.40;99.90
19242;DHT22;9755;47.790;9.620;2022-07-23T04:55:45;17.40;99.90
19242;DHT22;9755;47.790;9.620;2022-07-23T04:58:12;17.50;99.90
19242;DHT22;9755;47.790;9.620;2022-07-23T05:00:39;17.50;99.90
19242;DHT22;9755;47.790;9.620;2022-07-23T05:03:08;17.50;99.90
19242;DHT22;9755;47.790;9.620;2022-07-23T05:05:35;17.40;99.90
19242;DHT22;9755;47.790;9.620;2022-07-23T05:08:02;17.30;99.90
19242;DHT22;9755;47.790;9.620;2022-07-23T05:10:30;17.20;99.90
19242;DHT22;9755;47.790;9.620;2022-07-23T05:12:57;17.20;99.90
19242;DHT22;9755;47.790;9.620;2022-07-23T05:15:24;17.20;99.90
19242;DHT22;9755;47.790;9.620;2022-07-23T05:17:51;17.20;99.90
19242;DHT22;9755;47.790;9.620;2022-07-23T05:20:20;17.20;99.90
19242;DHT22;9755;47.790;9.620;2022-07-23T05:22:47;17.20;99.90
19242;DHT22;9755;47.790;9.620;2022-07-23T05:25:14;17.20;99.90
19242;DHT22;9755;47.790;9.620;2022-07-23T05:27:41;17.20;99.90
19242;DHT22;9755;47.790;9.620;2022-07-23T05:30:10;17.20;99.90
19242;DHT22;9755;47.790;9.620;2022-07-23T05:32:37;17.20;99.90
19242;DHT22;9755;47.790;9.620;2022-07-23T05:35:05;17.20;99.90
19242;DHT22;9755;47.790;9.620;2022-07-23T05:37:34;17.20;99.90
19242;DHT22;9755;47.790;9.620;2022-07-23T05:40:02;17.20;99.90
19242;DHT22;9755;47.790;9.620;2022-07-23T05:42:29;17.30;99.90
19242;DHT22;9755;47.790;9.620;2022-07-23T05:44:56;17.30;99.90
19242;DHT22;9755;47.790;9.620;2022-07-23T05:47:23;17.20;99.90
19242;DHT22;9755;47.790;9.620;2022-07-23T05:49:50;17.20;99.90
19242;DHT22;9755;47.790;9.620;2022-07-23T05:52:17;17.10;99.90
19242;DHT22;9755;47.790;9.620;2022-07-23T05:54:46;17.10;99.90
19242;DHT22;9755;47.790;9.620;2022-07-23T05:57:13;17.10;99.90
19242;DHT22;9755;47.790;9.620;2022-07-23T05:59:40;17.10;99.90
19242;DHT22;9755;47.790;9.620;2022-07-23T06:02:07;17.10;99.90
19242;DHT22;9755;47.790;9.620;2022-07-23T06:04:34;17.20;99.90
19242;DHT22;9755;47.790;9.620;2022-07-23T06:07:01;17.20;99.90
19242;DHT22;9755;47.790;9.620;2022-07-23T06:09:28;17.30;99.90
19242;DHT22;9755;47.790;9.620;2022-07-23T06:11:57;17.20;99.90
19242;DHT22;9755;47.790;9.620;2022-07-23T06:14:24;17.30;99.90
19242;DHT22;9755;47.790;9.620;2022-07-23T06:16:51;17.40;99.90
19242;DHT22;9755;47.790;9.620;2022-07-23T06:19:18;17.50;99.90
19242;DHT22;9755;47.790;9.620;2022-07-23T06:21:45;17.70;99.90
19242;DHT22;9755;47.790;9.620;2022-07-23T06:24:12;17.90;99.90
19242;DHT22;9755;47.790;9.620;2022-07-23T06:26:39;18.00;99.90
19242;DHT22;9755;47.790;9.620;2022-07-23T06:29:07;18.00;99.90
19242;DHT22;9755;47.790;9.620;2022-07-23T06:31:35;17.90;99.90
19242;DHT22;9755;47.790;9.620;2022-07-23T06:34:02;18.00;99.90
19242;DHT22;9755;47.790;9.620;2022-07-23T06:36:29;18.10;99.90
19242;DHT22;9755;47.790;9.620;2022-07-23T06:38:56;18.20;99.90
19242;DHT22;9755;47.790;9.620;2022-07-23T06:41:23;18.30;99.90
19242;DHT22;9755;47.790;9.620;2022-07-23T06:43:50;18.40;99.90
19242;DHT22;9755;47.790;9.620;2022-07-23T06:46:18;18.40;99.90
19242;DHT22;9755;47.790;9.620;2022-07-23T06:48:47;18.40;99.90
19242;DHT22;9755;47.790;9.620;2022-07-23T06:51:14;18.60;99.90
19242;DHT22;9755;47.790;9.620;2022-07-23T06:53:41;18.70;99.90
19242;DHT22;9755;47.790;9.620;2022-07-23T06:56:08;18.70;99.90
19242;DHT22;9755;47.790;9.620;2022-07-23T06:58:35;18.80;99.90
19242;DHT22;9755;47.790;9.620;2022-07-23T07:01:02;18.80;99.90
19242;DHT22;9755;47.790;9.620;2022-07-23T07:03:31;18.70;99.90
19242;DHT22;9755;47.790;9.620;2022-07-23T07:05:57;18.80;99.90
19242;DHT22;9755;47.790;9.620;2022-07-23T07:08:25;18.90;99.90
19242;DHT22;9755;47.790;9.620;2022-07-23T07:10:52;19.00;99.90
19242;DHT22;9755;47.790;9.620;2022-07-23T07:13:19;19.00;99.90
19242;DHT22;9755;47.790;9.620;2022-07-23T07:15:46;19.00;99.90
19242;DHT22;9755;47.790;9.620;2022-07-23T07:18:13;19.00;99.90
19242;DHT22;9755;47.790;9.620;2022-07-23T07:20:41;19.20;99.90
19242;DHT22;9755;47.790;9.620;2022-07-23T07:23:08;19.30;99.90
19242;DHT22;9755;47.790;9.620;2022-07-23T07:25:35;19.50;99.90
19242;DHT22;9755;47.790;9.620;2022-07-23T07:28:03;19.80;99.90
19242;DHT22;9755;47.790;9.620;2022-07-23T07:30:30;19.90;99.90
19242;DHT22;9755;47.790;9.620;2022-07-23T07:32:57;20.10;99.90
19242;DHT22;9755;47.790;9.620;2022-07-23T07:35:24;20.40;99.90
19242;DHT22;9755;47.790;9.620;2022-07-23T07:37:53;20.70;99.90
19242;DHT22;9755;47.790;9.620;2022-07-23T07:40:20;21.00;99.90
19242;DHT22;9755;47.790;9.620;2022-07-23T07:42:47;21.40;99.90
19242;DHT22;9755;47.790;9.620;2022-07-23T07:45:15;21.50;99.90
19242;DHT22;9755;47.790;9.620;2022-07-23T07:47:42;21.50;1.00
19242;DHT22;9755;47.790;9.620;2022-07-23T07:50:09;21.50;99.90
19242;DHT22;9755;47.790;9.620;2022-07-23T07:52:36;21.50;48.90
19242;DHT22;9755;47.790;9.620;2022-07-23T07:55:07;21.70;99.90
19242;DHT22;9755;47.790;9.620;2022-07-23T07:57:35;21.40;1.00
19242;DHT22;9755;47.790;9.620;2022-07-23T08:00:03;21.40;1.00
19242;DHT22;9755;47.790;9.620;2022-07-23T08:02:42;21.50;1.00
19242;DHT22;9755;47.790;9.620;2022-07-23T08:05:10;21.30;1.00
19242;DHT22;9755;47.790;9.620;2022-07-23T08:07:38;21.20;1.00
19242;DHT22;9755;47.790;9.620;2022-07-23T08:10:08;21.00;99.90
19242;DHT22;9755;47.790;9.620;2022-07-23T08:12:44;20.90;99.90
19242;DHT22;9755;47.790;9.620;2022-07-23T08:15:12;20.90;1.00
19242;DHT22;9755;47.790;9.620;2022-07-23T08:17:40;20.70;1.00
19242;DHT22;9755;47.790;9.620;2022-07-23T08:20:08;20.50;1.00
19242;DHT22;9755;47.790;9.620;2022-07-23T08:22:46;20.40;1.00
19242;DHT22;9755;47.790;9.620;2022-07-23T08:25:16;20.50;1.00
19242;DHT22;9755;47.790;9.620;2022-07-23T08:27:46;20.40;1.00
19242;DHT22;9755;47.790;9.620;2022-07-23T08:30:15;20.40;99.90
19242;DHT22;9755;47.790;9.620;2022-07-23T08:32:49;20.30;1.00
19242;DHT22;9755;47.790;9.620;2022-07-23T08:35:17;20.20;38.00
19242;DHT22;9755;47.790;9.620;2022-07-23T08:37:44;20.20;99.90
19242;DHT22;9755;47.790;9.620;2022-07-23T08:40:11;20.20;99.90
19242;DHT22;9755;47.790;9.620;2022-07-23T08:42:40;20.00;99.90
19242;DHT22;9755;47.790;9.620;2022-07-23T08:45:08;20.00;1.00
19242;DHT22;9755;47.790;9.620;2022-07-23T08:47:37;20.00;1.00
19242;DHT22;9755;47.790;9.620;2022-07-23T08:50:05;20.00;1.00
19242;DHT22;9755;47.790;9.620;2022-07-23T08:52:34;20.10;1.00
19242;DHT22;9755;47.790;9.620;2022-07-23T08:55:03;20.10;39.00
19242;DHT22;9755;47.790;9.620;2022-07-23T08:57:30;20.00;1.00
19242;DHT22;9755;47.790;9.620;2022-07-23T08:59:59;20.10;1.00
19242;DHT22;9755;47.790;9.620;2022-07-23T09:02:26;20.10;1.00
19242;DHT22;9755;47.790;9.620;2022-07-23T09:04:53;20.20;1.00
19242;DHT22;9755;47.790;9.620;2022-07-23T09:07:20;20.20;1.00
19242;DHT22;9755;47.790;9.620;2022-07-23T09:09:47;20.20;14.10
19242;DHT22;9755;47.790;9.620;2022-07-23T09:12:26;20.10;1.00
19242;DHT22;9755;47.790;9.620;2022-07-23T09:14:53;20.00;1.00
19242;DHT22;9755;47.790;9.620;2022-07-23T09:17:21;20.00;1.00
19242;DHT22;9755;47.790;9.620;2022-07-23T09:19:48;20.00;1.00
19242;DHT22;9755;47.790;9.620;2022-07-23T09:22:23;19.90;1.00
19242;DHT22;9755;47.790;9.620;2022-07-23T09:25:06;20.00;7.30
19242;DHT22;9755;47.790;9.620;2022-07-23T09:27:54;20.10;1.00
19242;DHT22;9755;47.790;9.620;2022-07-23T09:30:23;20.30;1.00
19242;DHT22;9755;47.790;9.620;2022-07-23T09:33:09;20.50;1.00
19242;DHT22;9755;47.790;9.620;2022-07-23T09:35:47;20.90;1.00
19242;DHT22;9755;47.790;9.620;2022-07-23T09:38:15;21.20;99.90
19242;DHT22;9755;47.790;9.620;2022-07-23T09:40:43;21.50;99.90
19242;DHT22;9755;47.790;9.620;2022-07-23T09:43:11;21.70;1.00
19242;DHT22;9755;47.790;9.620;2022-07-23T09:45:38;21.80;99.90
19242;DHT22;9755;47.790;9.620;2022-07-23T09:48:15;21.70;99.90
19242;DHT22;9755;47.790;9.620;2022-07-23T09:50:43;21.60;1.00
19242;DHT22;9755;47.790;9.620;2022-07-23T09:53:11;21.70;1.00
19242;DHT22;9755;47.790;9.620;2022-07-23T09:55:51;21.90;1.00
19242;DHT22;9755;47.790;9.620;2022-07-23T09:58:21;22.00;1.00
19242;DHT22;9755;47.790;9.620;2022-07-23T10:00:52;21.80;1.00
19242;DHT22;9755;47.790;9.620;2022-07-23T10:03:21;21.70;1.00
19242;DHT22;9755;47.790;9.620;2022-07-23T10:05:50;21.60;1.00
19242;DHT22;9755;47.790;9.620;2022-07-23T10:08:19;21.60;99.90
19242;DHT22;9755;47.790;9.620;2022-07-23T10:10:47;21.60;1.00
19242;DHT22;9755;47.790;9.620;2022-07-23T10:13:14;21.40;1.00
19242;DHT22;9755;47.790;9.620;2022-07-23T10:16:04;21.20;1.00
19242;DHT22;9755;47.790;9.620;2022-07-23T10:18:33;21.00;1.00
19242;DHT22;9755;47.790;9.620;2022-07-23T10:21:03;20.80;99.90
19242;DHT22;9755;47.790;9.620;2022-07-23T10:23:37;20.80;99.90
19242;DHT22;9755;47.790;9.620;2022-07-23T10:26:10;20.80;1.00
19242;DHT22;9755;47.790;9.620;2022-07-23T10:28:56;20.80;1.00
19242;DHT22;9755;47.790;9.620;2022-07-23T10:31:35;20.80;1.00
19242;DHT22;9755;47.790;9.620;2022-07-23T10:34:14;20.90;1.00
19242;DHT22;9755;47.790;9.620;2022-07-23T10:36:50;20.90;1.00
19242;DHT22;9755;47.790;9.620;2022-07-23T10:39:22;21.10;1.00
19242;DHT22;9755;47.790;9.620;2022-07-23T10:41:51;21.20;99.90
19242;DHT22;9755;47.790;9.620;2022-07-23T10:44:20;21.20;99.90
19242;DHT22;9755;47.790;9.620;2022-07-23T10:46:57;21.50;99.90
19242;DHT22;9755;47.790;9.620;2022-07-23T10:49:43;21.80;99.90
19242;DHT22;9755;47.790;9.620;2022-07-23T10:52:21;22.30;99.90
19242;DHT22;9755;47.790;9.620;2022-07-23T10:54:50;22.60;99.90
19242;DHT22;9755;47.790;9.620;2022-07-23T10:57:19;22.70;1.00
19242;DHT22;9755;47.790;9.620;2022-07-23T11:00:16;23.10;1.00
19242;DHT22;9755;47.790;9.620;2022-07-23T11:02:45;23.50;99.90
19242;DHT22;9755;47.790;9.620;2022-07-23T11:05:15;23.60;1.00
19242;DHT22;9755;47.790;9.620;2022-07-23T11:08:11;23.50;99.90
19242;DHT22;9755;47.790;9.620;2022-07-23T11:10:43;23.10;1.00
19242;DHT22;9755;47.790;9.620;2022-07-23T11:13:29;23.10;1.00
19242;DHT22;9755;47.790;9.620;2022-07-23T11:16:04;23.10;1.00
19242;DHT22;9755;47.790;9.620;2022-07-23T11:18:54;23.10;1.00
19242;DHT22;9755;47.790;9.620;2022-07-23T11:21:44;23.10;1.00
19242;DHT22;9755;47.790;9.620;2022-07-23T11:24:13;23.10;99.90
19242;DHT22;9755;47.790;9.620;2022-07-23T11:26:45;23.20;99.90
19242;DHT22;9755;47.790;9.620;2022-07-23T11:29:46;23.10;1.00
19242;DHT22;9755;47.790;9.620;2022-07-23T11:32:39;23.00;1.00
19242;DHT22;9755;47.790;9.620;2022-07-23T11:35:24;22.90;99.90
19242;DHT22;9755;47.790;9.620;2022-07-23T11:38:02;22.50;99.90
19242;DHT22;9755;47.790;9.620;2022-07-23T11:40:29;22.40;99.90
19242;DHT22;9755;47.790;9.620;2022-07-23T11:42:59;22.40;99.90
19242;DHT22;9755;47.790;9.620;2022-07-23T11:45:31;22.30;1.00
19242;DHT22;9755;47.790;9.620;2022-07-23T11:47:59;21.90;1.00
19242;DHT22;9755;47.790;9.620;2022-07-23T11:50:26;21.70;99.90
19242;DHT22;9755;47.790;9.620;2022-07-23T11:52:55;21.50;1.00
19242;DHT22;9755;47.790;9.620;2022-07-23T11:55:22;21.40;99.90
19242;DHT22;9755;47.790;9.620;2022-07-23T11:57:51;21.30;99.90
19242;DHT22;9755;47.790;9.620;2022-07-23T12:00:21;21.20;1.00
19242;DHT22;9755;47.790;9.620;2022-07-23T12:02:50;21.40;1.00
19242;DHT22;9755;47.790;9.620;2022-07-23T12:05:19;21.70;1.00
19242;DHT22;9755;47.790;9.620;2022-07-23T12:07:47;22.30;99.90
19242;DHT22;9755;47.790;9.620;2022-07-23T12:10:19;22.50;99.90
19242;DHT22;9755;47.790;9.620;2022-07-23T12:12:48;22.70;99.90
19242;DHT22;9755;47.790;9.620;2022-07-23T12:15:18;22.90;1.00
19242;DHT22;9755;47.790;9.620;2022-07-23T12:17:47;22.70;1.00
19242;DHT22;9755;47.790;9.620;2022-07-23T12:20:15;22.80;99.90
19242;DHT22;9755;47.790;9.620;2022-07-23T12:22:45;23.00;1.00
19242;DHT22;9755;47.790;9.620;2022-07-23T12:25:14;23.00;1.00
19242;DHT22;9755;47.790;9.620;2022-07-23T12:27:43;22.70;1.00
19242;DHT22;9755;47.790;9.620;2022-07-23T12:30:22;22.40;99.90
19242;DHT22;9755;47.790;9.620;2022-07-23T12:32:50;22.10;1.00
19242;DHT22;9755;47.790;9.620;2022-07-23T12:35:18;21.70;1.00
19242;DHT22;9755;47.790;9.620;2022-07-23T12:37:46;21.70;99.90
19242;DHT22;9755;47.790;9.620;2022-07-23T12:40:22;21.60;1.00
19242;DHT22;9755;47.790;9.620;2022-07-23T12:42:52;21.70;1.00
19242;DHT22;9755;47.790;9.620;2022-07-23T12:45:20;21.90;1.00
19242;DHT22;9755;47.790;9.620;2022-07-23T12:47:58;21.90;99.90
19242;DHT22;9755;47.790;9.620;2022-07-23T12:53:37;22.20;99.90
19242;DHT22;9755;47.790;9.620;2022-07-23T12:56:09;23.20;99.90
19242;DHT22;9755;47.790;9.620;2022-07-23T12:58:46;23.60;1.00
19242;DHT22;9755;47.790;9.620;2022-07-23T13:01:23;24.00;26.00
19242;DHT22;9755;47.790;9.620;2022-07-23T13:03:59;25.10;99.90
19242;DHT22;9755;47.790;9.620;2022-07-23T13:06:27;25.80;1.00
19242;DHT22;9755;47.790;9.620;2022-07-23T13:08:54;26.00;99.90
19242;DHT22;9755;47.790;9.620;2022-07-23T13:11:21;26.30;99.90
19242;DHT22;9755;47.790;9.620;2022-07-23T13:13:50;26.00;99.90
19242;DHT22;9755;47.790;9.620;2022-07-23T13:16:18;25.40;99.90
19242;DHT22;9755;47.790;9.620;2022-07-23T13:18:45;25.60;99.90
19242;DHT22;9755;47.790;9.620;2022-07-23T13:21:12;25.50;99.90
19242;DHT22;9755;47.790;9.620;2022-07-23T13:23:39;26.00;99.90
19242;DHT22;9755;47.790;9.620;2022-07-23T13:26:06;26.60;99.90
19242;DHT22;9755;47.790;9.620;2022-07-23T13:28:33;26.80;99.90
19242;DHT22;9755;47.790;9.620;2022-07-23T13:31:02;27.60;99.90
19242;DHT22;9755;47.790;9.620;2022-07-23T13:33:30;27.90;99.90
19242;DHT22;9755;47.790;9.620;2022-07-23T13:35:57;28.00;99.90
19242;DHT22;9755;47.790;9.620;2022-07-23T13:38:24;28.40;99.90
19242;DHT22;9755;47.790;9.620;2022-07-23T13:40:52;28.10;99.90
19242;DHT22;9755;47.790;9.620;2022-07-23T13:43:21;28.00;99.90
19242;DHT22;9755;47.790;9.620;2022-07-23T13:45:49;28.30;99.90
19242;DHT22;9755;47.790;9.620;2022-07-23T13:48:19;28.10;99.90
19242;DHT22;9755;47.790;9.620;2022-07-23T13:50:47;28.70;99.90
19242;DHT22;9755;47.790;9.620;2022-07-23T13:53:16;28.70;99.90
19242;DHT22;9755;47.790;9.620;2022-07-23T13:55:43;29.10;99.90
19242;DHT22;9755;47.790;9.620;2022-07-23T13:58:11;28.80;99.90
19242;DHT22;9755;47.790;9.620;2022-07-23T14:00:41;27.60;99.90
19242;DHT22;9755;47.790;9.620;2022-07-23T14:03:09;28.10;99.90
19242;DHT22;9755;47.790;9.620;2022-07-23T14:05:37;27.80;1.00
19242;DHT22;9755;47.790;9.620;2022-07-23T14:08:05;27.90;99.90
19242;DHT22;9755;47.790;9.620;2022-07-23T14:10:32;27.80;99.90
19242;DHT22;9755;47.790;9.620;2022-07-23T14:12:59;27.70;99.90
19242;DHT22;9755;47.790;9.620;2022-07-23T14:15:27;27.60;99.90
19242;DHT22;9755;47.790;9.620;2022-07-23T14:17:55;28.00;99.90
19242;DHT22;9755;47.790;9.620;2022-07-23T14:20:23;27.90;99.90
19242;DHT22;9755;47.790;9.620;2022-07-23T14:22:52;27.50;99.90
19242;DHT22;9755;47.790;9.620;2022-07-23T14:25:21;27.30;99.90
19242;DHT22;9755;47.790;9.620;2022-07-23T14:27:48;27.40;99.90
19242;DHT22;9755;47.790;9.620;2022-07-23T14:30:15;27.80;99.90
19242;DHT22;9755;47.790;9.620;2022-07-23T14:32:42;28.10;99.90
19242;DHT22;9755;47.790;9.620;2022-07-23T14:35:09;28.10;99.90
19242;DHT22;9755;47.790;9.620;2022-07-23T14:37:36;28.40;99.90
19242;DHT22;9755;47.790;9.620;2022-07-23T14:40:07;28.40;99.90
19242;DHT22;9755;47.790;9.620;2022-07-23T14:42:34;28.50;99.90
19242;DHT22;9755;47.790;9.620;2022-07-23T14:45:02;28.40;99.90
19242;DHT22;9755;47.790;9.620;2022-07-23T14:47:30;28.60;99.90
19242;DHT22;9755;47.790;9.620;2022-07-23T14:49:57;28.10;99.90
19242;DHT22;9755;47.790;9.620;2022-07-23T14:52:24;28.20;99.90
19242;DHT22;9755;47.790;9.620;2022-07-23T14:54:51;28.10;99.90
19242;DHT22;9755;47.790;9.620;2022-07-23T14:57:20;28.20;99.90
19242;DHT22;9755;47.790;9.620;2022-07-23T14:59:47;28.40;99.90
19242;DHT22;9755;47.790;9.620;2022-07-23T15:02:14;28.30;99.90
19242;DHT22;9755;47.790;9.620;2022-07-23T15:04:41;28.40;99.90
19242;DHT22;9755;47.790;9.620;2022-07-23T15:07:08;28.50;99.90
19242;DHT22;9755;47.790;9.620;2022-07-23T15:09:35;28.60;99.90
19242;DHT22;9755;47.790;9.620;2022-07-23T15:12:03;28.20;99.90
19242;DHT22;9755;47.790;9.620;2022-07-23T15:14:31;28.40;99.90
19242;DHT22;9755;47.790;9.620;2022-07-23T15:16:58;28.40;99.90
19242;DHT22;9755;47.790;9.620;2022-07-23T15:19:26;28.20;99.90
19242;DHT22;9755;47.790;9.620;2022-07-23T15:21:53;28.40;99.90
19242;DHT22;9755;47.790;9.620;2022-07-23T15:24:20;28.30;99.90
19242;DHT22;9755;47.790;9.620;2022-07-23T15:26:47;27.90;99.90
19242;DHT22;9755;47.790;9.620;2022-07-23T15:29:14;28.00;99.90
19242;DHT22;9755;47.790;9.620;2022-07-23T15:31:42;28.10;99.90
19242;DHT22;9755;47.790;9.620;2022-07-23T15:34:09;27.90;99.90
19242;DHT22;9755;47.790;9.620;2022-07-23T15:36:36;28.00;99.90
19242;DHT22;9755;47.790;9.620;2022-07-23T15:39:03;27.80;99.90
19242;DHT22;9755;47.790;9.620;2022-07-23T15:41:31;27.80;99.90
19242;DHT22;9755;47.790;9.620;2022-07-23T15:43:59;27.90;99.90
19242;DHT22;9755;47.790;9.620;2022-07-23T15:46:26;28.00;99.90
19242;DHT22;9755;47.790;9.620;2022-07-23T15:48:55;28.10;99.90
19242;DHT22;9755;47.790;9.620;2022-07-23T15:51:22;27.80;99.90
19242;DHT22;9755;47.790;9.620;2022-07-23T15:53:49;27.30;99.90
19242;DHT22;9755;47.790;9.620;2022-07-23T15:56:16;28.00;99.90
19242;DHT22;9755;47.790;9.620;2022-07-23T15:58:43;28.80;99.90
19242;DHT22;9755;47.790;9.620;2022-07-23T16:01:11;29.10;99.90
19242;DHT22;9755;47.790;9.620;2022-07-23T16:03:38;29.00;99.90
19242;DHT22;9755;47.790;9.620;2022-07-23T16:06:07;29.00;1.00